Time;durP1;ratioP1;P1;durP2;ratioP2;P2;SDS_P1;SDS_P2;PMS_P1;PMS_P2;Temp;Humidity;BMP_temperature;BMP_pressure;BME280_temperature;BME280_humidity;BME280_pressure;Samples;Min_cycle;Max_cycle;Signal;HPM_P1;HPM_P2
2021/09/17 00:00:24;;;;;;;;;;;;;;;17.45;100.00;99142.56;5087500;28;20006;-64
2021/09/17 00:02:50;;;;;;;;;;;;;;;17.61;100.00;99132.09;5087662;28;19963;-64
2021/09/17 00:05:15;;;;;;;;;;;;;;;17.58;100.00;99136.63;5090182;28;20404;-64
2021/09/17 00:07:41;;;;;;;;;;;;;;;17.49;100.00;99133.66;5094360;28;19912;-64
2021/09/17 00:10:07;;;;;;;;;;;;;;;17.37;100.00;99129.13;5094427;28;20565;-64
2021/09/17 00:12:32;;;;;;;;;;;;;;;17.33;100.00;99133.69;5094229;28;20007;-64
2021/09/17 00:14:57;;;;;;;;;;;;;;;17.08;100.00;99130.78;5094233;28;20471;-64
2021/09/17 00:17:23;;;;;;;;;;;;;;;17.15;100.00;99129.50;5112618;28;19912;-64
2021/09/17 00:19:48;;;;;;;;;;;;;;;17.23;100.00;99131.69;5094511;28;20387;-64
2021/09/17 00:22:14;;;;;;;;;;;;;;;17.13;100.00;99127.03;5090064;28;20273;-62
2021/09/17 00:24:39;;;;;;;;;;;;;;;17.17;100.00;99122.47;5082736;28;19923;-62
2021/09/17 00:27:05;;;;;;;;;;;;;;;17.10;100.00;99121.13;5085959;28;19924;-66
2021/09/17 00:29:30;;;;;;;;;;;;;;;17.23;100.00;99119.50;5083233;28;19924;-65
2021/09/17 00:31:56;;;;;;;;;;;;;;;17.29;100.00;99115.75;5086677;28;19934;-64
2021/09/17 00:34:21;;;;;;;;;;;;;;;17.18;100.00;99115.53;5083663;28;19919;-64
2021/09/17 00:36:47;;;;;;;;;;;;;;;16.90;100.00;99112.72;5080544;28;20010;-63
2021/09/17 00:39:17;;;;;;;;;;;;;;;17.01;100.00;99112.09;5068631;28;19919;-62
2021/09/17 00:41:43;;;;;;;;;;;;;;;17.09;100.00;99107.28;5085961;28;19919;-62
2021/09/17 00:44:09;;;;;;;;;;;;;;;17.15;100.00;99108.69;5085583;28;19923;-62
2021/09/17 00:46:34;;;;;;;;;;;;;;;17.06;100.00;99115.28;5093498;28;19939;-62
2021/09/17 00:49:00;;;;;;;;;;;;;;;17.01;100.00;99117.28;5084671;28;19916;-63
2021/09/17 00:51:25;;;;;;;;;;;;;;;17.03;100.00;99118.03;5073808;28;19912;-63
2021/09/17 00:53:51;;;;;;;;;;;;;;;16.95;100.00;99102.03;5093866;28;20414;-63
2021/09/17 00:56:16;;;;;;;;;;;;;;;16.97;100.00;99104.53;5094159;28;20362;-63
2021/09/17 00:58:42;;;;;;;;;;;;;;;17.08;100.00;99104.78;5093555;28;20430;-63
2021/09/17 01:01:07;;;;;;;;;;;;;;;17.00;100.00;99105.22;5077023;28;20555;-63
2021/09/17 01:03:33;;;;;;;;;;;;;;;16.93;100.00;99114.31;5093568;28;20414;-63
2021/09/17 01:05:59;;;;;;;;;;;;;;;16.99;100.00;99108.75;5090285;28;19952;-62
2021/09/17 01:08:25;;;;;;;;;;;;;;;16.84;100.00;99107.00;5090398;28;20281;-63
2021/09/17 01:10:50;;;;;;;;;;;;;;;17.01;100.00;99106.88;5088700;28;20015;-63
2021/09/17 01:13:15;;;;;;;;;;;;;;;16.87;100.00;99104.22;5080127;28;19916;-63
2021/09/17 01:15:41;;;;;;;;;;;;;;;16.87;100.00;99104.22;5067026;28;19939;-63
2021/09/17 01:18:06;;;;;;;;;;;;;;;16.92;100.00;99097.00;5081793;28;19924;-64
2021/09/17 01:20:32;;;;;;;;;;;;;;;16.89;100.00;99091.97;5079726;28;19925;-63
2021/09/17 01:22:57;;;;;;;;;;;;;;;16.87;100.00;99099.03;5079219;28;19981;-63
2021/09/17 01:25:22;;;;;;;;;;;;;;;16.55;100.00;99093.81;5078166;28;19916;-64
2021/09/17 01:27:49;;;;;;;;;;;;;;;16.85;100.00;99095.66;5079342;28;19922;-63
2021/09/17 01:30:15;;;;;;;;;;;;;;;16.98;100.00;99090.63;5083963;28;19916;-63
2021/09/17 01:32:41;;;;;;;;;;;;;;;16.97;100.00;99089.78;5082057;28;19916;-63
2021/09/17 01:35:11;;;;;;;;;;;;;;;16.98;100.00;99091.47;5098989;28;20015;-63
2021/09/17 01:37:36;;;;;;;;;;;;;;;17.14;100.00;99086.22;5081392;28;20453;-63
2021/09/17 01:40:03;;;;;;;;;;;;;;;17.14;100.00;99089.66;5081057;28;19954;-63
2021/09/17 01:42:28;;;;;;;;;;;;;;;17.06;100.00;99081.47;5083872;28;19916;-63
2021/09/17 01:44:53;;;;;;;;;;;;;;;17.30;100.00;99080.97;5087033;28;19923;-64
2021/09/17 01:47:19;;;;;;;;;;;;;;;17.22;100.00;99081.41;5084021;28;19937;-64
2021/09/17 01:49:44;;;;;;;;;;;;;;;17.11;100.00;99076.00;5087472;28;20386;-64
2021/09/17 01:52:10;;;;;;;;;;;;;;;17.21;100.00;99086.69;5082190;28;20342;-64
2021/09/17 01:54:36;;;;;;;;;;;;;;;17.17;100.00;99080.00;5083494;28;19938;-64
2021/09/17 01:57:02;;;;;;;;;;;;;;;17.23;100.00;99074.44;5073040;28;20381;-63
2021/09/17 01:59:27;;;;;;;;;;;;;;;17.05;100.00;99077.16;5083391;28;19923;-63
2021/09/17 02:01:53;;;;;;;;;;;;;;;17.25;100.00;99077.78;5091560;28;19914;-63
2021/09/17 02:04:19;;;;;;;;;;;;;;;17.11;100.00;99076.00;5093380;28;19970;-63
2021/09/17 02:06:44;;;;;;;;;;;;;;;17.14;100.00;99081.84;5089645;28;19920;-63
2021/09/17 02:09:10;;;;;;;;;;;;;;;17.10;100.00;99077.72;5072869;28;19923;-63
2021/09/17 02:11:35;;;;;;;;;;;;;;;17.22;100.00;99077.94;5069335;28;20010;-63
2021/09/17 02:14:01;;;;;;;;;;;;;;;16.96;100.00;99076.88;5066294;28;19923;-63
2021/09/17 02:16:27;;;;;;;;;;;;;;;17.20;100.00;99074.63;5081685;28;20373;-64
2021/09/17 02:18:52;;;;;;;;;;;;;;;17.33;100.00;99075.56;5066413;28;19928;-63
2021/09/17 02:21:22;;;;;;;;;;;;;;;17.30;100.00;99076.59;5080721;28;19970;-63
2021/09/17 02:23:48;;;;;;;;;;;;;;;17.30;100.00;99073.16;5065179;28;20357;-62
2021/09/17 02:26:13;;;;;;;;;;;;;;;17.24;100.00;99071.75;5083290;28;19997;-63
2021/09/17 02:28:39;;;;;;;;;;;;;;;17.24;100.00;99070.91;5080613;28;19958;-63
2021/09/17 02:31:04;;;;;;;;;;;;;;;17.40;100.00;99070.84;5065213;28;19917;-62
2021/09/17 02:33:29;;;;;;;;;;;;;;;17.28;100.00;99062.00;5064001;28;19916;-62
2021/09/17 02:35:55;;;;;;;;;;;;;;;16.83;100.00;99071.50;5080890;28;19990;-62
2021/09/17 02:38:22;;;;;;;;;;;;;;;17.02;100.00;99074.75;5082179;28;19916;-62
2021/09/17 02:40:48;;;;;;;;;;;;;;;17.34;100.00;99069.44;5064942;28;19975;-62
2021/09/17 02:43:13;;;;;;;;;;;;;;;16.86;100.00;99066.97;5063767;28;20373;-62
2021/09/17 02:45:38;;;;;;;;;;;;;;;17.10;100.00;99062.13;5066400;28;19913;-63
2021/09/17 02:48:04;;;;;;;;;;;;;;;16.80;100.00;99064.72;5079903;28;19959;-62
2021/09/17 02:50:29;;;;;;;;;;;;;;;16.72;100.00;99070.34;5063448;28;20243;-62
2021/09/17 02:52:55;;;;;;;;;;;;;;;16.68;100.00;99063.63;5078747;28;19928;-61
2021/09/17 02:55:20;;;;;;;;;;;;;;;17.09;100.00;99062.22;5080472;28;19935;-63
2021/09/17 02:57:46;;;;;;;;;;;;;;;16.69;100.00;99054.06;5064241;28;19968;-63
2021/09/17 03:00:11;;;;;;;;;;;;;;;16.89;100.00;99055.56;5063957;28;19932;-64
2021/09/17 03:02:37;;;;;;;;;;;;;;;16.90;100.00;99052.03;5067796;28;20010;-64
2021/09/17 03:05:02;;;;;;;;;;;;;;;16.48;100.00;99061.28;5065892;28;19912;-63
2021/09/17 03:07:28;;;;;;;;;;;;;;;16.65;100.00;99058.59;5085647;28;19920;-63
2021/09/17 03:09:53;;;;;;;;;;;;;;;16.28;100.00;99055.44;5088772;28;20285;-63
2021/09/17 03:12:19;;;;;;;;;;;;;;;16.35;100.00;99052.50;5072198;28;20286;-63
2021/09/17 03:14:44;;;;;;;;;;;;;;;16.57;100.00;99044.34;5085868;28;20373;-63
2021/09/17 03:17:10;;;;;;;;;;;;;;;16.72;100.00;99049.53;5086180;28;20371;-63
2021/09/17 03:19:35;;;;;;;;;;;;;;;16.18;100.00;99051.66;5079520;28;19924;-64
2021/09/17 03:22:01;;;;;;;;;;;;;;;16.26;100.00;99059.88;5082377;28;20011;-62
2021/09/17 03:24:27;;;;;;;;;;;;;;;16.28;100.00;99054.59;5081759;28;19916;-62
2021/09/17 03:26:53;;;;;;;;;;;;;;;16.69;100.00;99044.50;5081516;28;20388;-61
2021/09/17 03:29:18;;;;;;;;;;;;;;;16.19;100.00;99044.69;5083328;28;20555;-61
2021/09/17 03:31:44;;;;;;;;;;;;;;;16.60;100.00;99038.97;5082065;28;20007;-62
2021/09/17 03:34:09;;;;;;;;;;;;;;;16.40;100.00;99045.28;5078391;28;19920;-61
2021/09/17 03:36:42;;;;;;;;;;;;;;;16.48;100.00;99037.91;5079027;28;19939;-61
2021/09/17 03:39:07;;;;;;;;;;;;;;;16.52;100.00;99042.84;5079116;28;19916;-62
2021/09/17 03:41:32;;;;;;;;;;;;;;;16.53;100.00;99038.47;5078449;28;19938;-63
2021/09/17 03:43:58;;;;;;;;;;;;;;;16.66;100.00;99039.47;5068270;28;19962;-61
2021/09/17 03:46:23;;;;;;;;;;;;;;;16.77;100.00;99043.22;5078377;28;19916;-62
2021/09/17 03:48:49;;;;;;;;;;;;;;;16.53;100.00;99043.66;5082478;28;19911;-64
2021/09/17 03:51:14;;;;;;;;;;;;;;;16.65;100.00;99048.19;5080202;28;19917;-63
2021/09/17 03:53:39;;;;;;;;;;;;;;;16.72;100.00;99046.09;5079262;28;19915;-62
2021/09/17 03:56:05;;;;;;;;;;;;;;;16.54;100.00;99040.16;5074009;28;19917;-63
2021/09/17 03:58:30;;;;;;;;;;;;;;;16.77;100.00;99040.63;5074870;28;19950;-62
2021/09/17 04:00:55;;;;;;;;;;;;;;;16.79;100.00;99031.00;5079674;28;19920;-63
2021/09/17 04:03:21;;;;;;;;;;;;;;;16.86;100.00;99022.75;5077810;28;19955;-64
2021/09/17 04:05:46;;;;;;;;;;;;;;;16.57;100.00;99026.97;5085573;28;19974;-64
2021/09/17 04:08:12;;;;;;;;;;;;;;;16.31;100.00;99034.47;5099031;28;20038;-62
2021/09/17 04:10:37;;;;;;;;;;;;;;;16.48;100.00;99030.09;5098507;28;19924;-61
2021/09/17 04:13:02;;;;;;;;;;;;;;;15.70;100.00;99037.75;5097600;28;20405;-62
2021/09/17 04:15:28;;;;;;;;;;;;;;;16.28;100.00;99042.44;5065363;28;19923;-63
2021/09/17 04:17:53;;;;;;;;;;;;;;;16.40;100.00;99037.47;5105871;28;19912;-62
2021/09/17 04:20:19;;;;;;;;;;;;;;;16.42;100.00;99025.22;5099296;28;20446;-61
2021/09/17 04:22:44;;;;;;;;;;;;;;;16.30;100.00;99031.94;5097697;28;20376;-65
2021/09/17 04:25:10;;;;;;;;;;;;;;;16.29;100.00;99025.91;5097928;28;19920;-64
2021/09/17 04:27:36;;;;;;;;;;;;;;;16.39;100.00;99025.41;5079967;28;19920;-63
2021/09/17 04:30:04;;;;;;;;;;;;;;;16.55;100.00;99021.03;5099857;28;19923;-63
2021/09/17 04:32:29;;;;;;;;;;;;;;;15.95;100.00;99032.13;5099975;28;19957;-63
2021/09/17 04:34:55;;;;;;;;;;;;;;;16.44;100.00;99024.22;5097247;28;19916;-62
2021/09/17 04:37:20;;;;;;;;;;;;;;;16.29;100.00;99025.91;5094080;28;19992;-61
2021/09/17 04:39:46;;;;;;;;;;;;;;;16.51;100.00;99016.91;5079518;28;19924;-64
2021/09/17 04:42:11;;;;;;;;;;;;;;;16.52;100.00;99019.44;5099844;28;19920;-63
2021/09/17 04:44:37;;;;;;;;;;;;;;;16.26;100.00;99017.44;5110740;28;19970;-62
2021/09/17 04:47:02;;;;;;;;;;;;;;;16.76;100.00;99010.34;5106682;28;19912;-62
2021/09/17 04:49:27;;;;;;;;;;;;;;;17.07;100.00;99006.84;5098777;28;19919;-63
2021/09/17 04:51:53;;;;;;;;;;;;;;;16.40;100.00;99017.53;5106968;28;20361;-62
2021/09/17 04:54:18;;;;;;;;;;;;;;;16.50;100.00;99023.88;5099991;28;19937;-64
2021/09/17 04:56:44;;;;;;;;;;;;;;;16.61;100.00;99020.69;5066765;28;20309;-63
2021/09/17 04:59:09;;;;;;;;;;;;;;;16.42;100.00;99027.84;5081095;28;19976;-64
2021/09/17 05:01:35;;;;;;;;;;;;;;;16.45;100.00;99028.50;5076951;28;19922;-61
2021/09/17 05:04:00;;;;;;;;;;;;;;;16.95;100.00;99020.56;5098108;28;20563;-60
2021/09/17 05:06:27;;;;;;;;;;;;;;;16.25;100.00;99029.59;5101065;28;19993;-63
2021/09/17 05:08:53;;;;;;;;;;;;;;;16.68;100.00;99026.38;5094180;28;19926;-63
2021/09/17 05:11:18;;;;;;;;;;;;;;;16.76;100.00;99028.53;5094290;28;19998;-62
2021/09/17 05:13:44;;;;;;;;;;;;;;;16.48;100.00;99033.53;5084914;28;19979;-62
2021/09/17 05:16:09;;;;;;;;;;;;;;;15.92;100.00;99031.41;5095363;28;19916;-65
2021/09/17 05:18:35;;;;;;;;;;;;;;;15.95;100.00;99039.91;5093832;28;19927;-64
2021/09/17 05:21:00;;;;;;;;;;;;;;;16.52;100.00;99034.22;5097654;28;19924;-64
2021/09/17 05:23:26;;;;;;;;;;;;;;;16.39;100.00;99031.44;5096270;28;19927;-64
2021/09/17 05:25:51;;;;;;;;;;;;;;;16.73;100.00;99029.56;5109432;28;19916;-63
2021/09/17 05:28:16;;;;;;;;;;;;;;;16.39;100.00;99025.41;5102077;28;19911;-64
2021/09/17 05:30:42;;;;;;;;;;;;;;;16.43;100.00;99037.31;5098313;28;19920;-63
2021/09/17 05:33:07;;;;;;;;;;;;;;;15.85;100.00;99046.50;5083697;28;19920;-61
2021/09/17 05:35:33;;;;;;;;;;;;;;;16.47;100.00;99039.66;5102342;28;19949;-64
2021/09/17 05:37:59;;;;;;;;;;;;;;;16.36;100.00;99039.41;5083793;28;20363;-63
2021/09/17 05:40:24;;;;;;;;;;;;;;;16.30;100.00;99050.13;5101291;28;20286;-63
2021/09/17 05:42:49;;;;;;;;;;;;;;;16.12;100.00;99048.53;5104173;28;19912;-61
2021/09/17 05:45:15;;;;;;;;;;;;;;;16.37;100.00;99043.69;5102272;28;19923;-63
2021/09/17 05:47:43;;;;;;;;;;;;;;;16.21;100.00;99054.06;5105692;28;19965;-63
2021/09/17 05:50:09;;;;;;;;;;;;;;;16.38;100.00;99052.34;5113541;28;19918;-63
2021/09/17 05:52:34;;;;;;;;;;;;;;;16.61;100.00;99057.09;5082849;28;19931;-63
2021/09/17 05:55:00;;;;;;;;;;;;;;;16.81;100.00;99049.94;5085703;28;20086;-63
2021/09/17 05:57:25;;;;;;;;;;;;;;;16.96;100.00;99040.44;5100854;28;19973;-61
2021/09/17 05:59:51;;;;;;;;;;;;;;;17.27;100.00;99039.50;5104154;28;20749;-65
2021/09/17 06:02:16;;;;;;;;;;;;;;;17.09;100.00;99044.84;5102234;28;19916;-63
2021/09/17 06:04:42;;;;;;;;;;;;;;;16.72;100.00;99053.91;5103807;28;19919;-63
2021/09/17 06:07:07;;;;;;;;;;;;;;;16.97;100.00;99047.31;5074215;28;19973;-63
2021/09/17 06:09:35;;;;;;;;;;;;;;;16.35;100.00;99060.28;5079191;28;19911;-66
2021/09/17 06:12:00;;;;;;;;;;;;;;;17.07;100.00;99049.31;5100295;28;20258;-63
2021/09/17 06:14:26;;;;;;;;;;;;;;;16.77;100.00;99045.84;5103367;28;19927;-63
2021/09/17 06:16:51;;;;;;;;;;;;;;;17.10;100.00;99043.91;5098164;28;19931;-63
2021/09/17 06:19:16;;;;;;;;;;;;;;;17.20;100.00;99048.59;5079758;28;19946;-63
2021/09/17 06:21:42;;;;;;;;;;;;;;;17.56;100.00;99040.34;5067621;28;19923;-63
2021/09/17 06:24:07;;;;;;;;;;;;;;;17.18;100.00;99040.03;5096846;28;20020;-63
2021/09/17 06:26:33;;;;;;;;;;;;;;;17.05;100.00;99045.13;5097195;28;20021;-63
2021/09/17 06:28:59;;;;;;;;;;;;;;;16.98;100.00;99049.00;5096093;28;19927;-63
2021/09/17 06:31:25;;;;;;;;;;;;;;;17.39;100.00;99041.38;5072365;28;19926;-63
2021/09/17 06:33:50;;;;;;;;;;;;;;;17.29;100.00;99042.84;5098075;28;19924;-64
2021/09/17 06:36:16;;;;;;;;;;;;;;;17.09;100.00;99049.22;5081470;28;19916;-65
2021/09/17 06:38:41;;;;;;;;;;;;;;;17.43;100.00;99053.28;5102253;28;19916;-63
2021/09/17 06:41:06;;;;;;;;;;;;;;;17.37;100.00;99051.03;5100116;28;19924;-63
2021/09/17 06:43:32;;;;;;;;;;;;;;;17.48;100.00;99048.63;5090324;28;19920;-63
2021/09/17 06:45:57;;;;;;;;;;;;;;;17.29;100.00;99050.66;5098906;28;19930;-64
2021/09/17 06:48:22;;;;;;;;;;;;;;;17.64;100.00;99051.16;5080018;28;19926;-62
2021/09/17 06:50:48;;;;;;;;;;;;;;;16.62;100.00;99058.75;5084139;28;20375;-63
2021/09/17 06:53:14;;;;;;;;;;;;;;;17.66;100.00;99056.28;5101281;28;20373;-64
2021/09/17 06:55:40;;;;;;;;;;;;;;;17.68;100.00;99050.06;5100213;28;19932;-64
2021/09/17 06:58:05;;;;;;;;;;;;;;;17.87;100.00;99055.00;5100654;28;19919;-63
2021/09/17 07:00:35;;;;;;;;;;;;;;;17.98;100.00;99052.56;5100156;28;20078;-62
2021/09/17 07:03:00;;;;;;;;;;;;;;;17.31;100.00;99061.78;5100315;28;19916;-61
2021/09/17 07:05:26;;;;;;;;;;;;;;;17.97;100.00;99057.88;5102083;28;20002;-61
2021/09/17 07:07:52;;;;;;;;;;;;;;;17.33;100.00;99060.81;5104600;28;19965;-61
2021/09/17 07:10:17;;;;;;;;;;;;;;;17.59;100.00;99054.97;5101039;28;19916;-66
2021/09/17 07:13:01;;;;;;;;;;;;;;;17.93;100.00;99057.25;5099680;28;19981;-61
2021/09/17 07:15:26;;;;;;;;;;;;;;;18.02;100.00;99058.44;5106935;28;19922;-63
2021/09/17 07:17:52;;;;;;;;;;;;;;;17.66;100.00;99057.13;5094125;28;20355;-63
2021/09/17 07:20:18;;;;;;;;;;;;;;;17.76;100.00;99052.19;5092616;28;19941;-63
2021/09/17 07:22:43;;;;;;;;;;;;;;;17.63;100.00;99056.44;5057643;28;19916;-63
2021/09/17 07:25:09;;;;;;;;;;;;;;;17.64;100.00;99052.94;5064725;28;20441;-64
2021/09/17 07:27:34;;;;;;;;;;;;;;;17.59;100.00;99060.19;5098781;28;19915;-62
2021/09/17 07:30:00;;;;;;;;;;;;;;;17.70;100.00;99053.41;5065227;28;19919;-63
2021/09/17 07:32:25;;;;;;;;;;;;;;;18.00;100.00;99046.44;5100874;28;19915;-63
2021/09/17 07:34:50;;;;;;;;;;;;;;;18.54;100.00;99046.50;5097948;28;19950;-63
2021/09/17 07:37:16;;;;;;;;;;;;;;;18.35;100.00;99044.22;5079750;28;19927;-64
2021/09/17 07:39:41;;;;;;;;;;;;;;;18.38;100.00;99034.44;5097695;28;20654;-64
2021/09/17 07:42:07;;;;;;;;;;;;;;;18.06;100.00;99041.66;5099161;28;19913;-64
2021/09/17 07:44:33;;;;;;;;;;;;;;;18.04;100.00;99034.88;5099618;28;20053;-61
2021/09/17 07:46:59;;;;;;;;;;;;;;;18.44;100.00;99040.19;5101025;28;20628;-61
2021/09/17 07:49:24;;;;;;;;;;;;;;;18.17;100.00;99046.22;5109474;28;19994;-63
2021/09/17 07:51:49;;;;;;;;;;;;;;;17.35;100.00;99047.69;5102979;28;19919;-63
2021/09/17 07:54:15;;;;;;;;;;;;;;;17.46;100.00;99063.50;5099127;28;19923;-63
2021/09/17 07:56:40;;;;;;;;;;;;;;;18.58;100.00;99042.75;5100288;28;20641;-63
2021/09/17 07:59:06;;;;;;;;;;;;;;;18.11;100.00;99057.00;5079286;28;19923;-63
2021/09/17 08:01:31;;;;;;;;;;;;;;;18.49;100.00;99061.59;5098494;27;19923;-63
2021/09/17 08:03:56;;;;;;;;;;;;;;;19.02;100.00;99054.69;5083935;28;20006;-64
2021/09/17 08:06:22;;;;;;;;;;;;;;;18.81;100.00;99072.59;5069905;28;20369;-64
2021/09/17 08:08:47;;;;;;;;;;;;;;;18.37;100.00;99066.66;5077853;28;21022;-64
2021/09/17 08:11:13;;;;;;;;;;;;;;;19.18;100.00;99055.38;5078211;28;19920;-64
2021/09/17 08:13:39;;;;;;;;;;;;;;;18.85;100.00;99057.59;5078839;28;19923;-63
2021/09/17 08:16:07;;;;;;;;;;;;;;;18.77;100.00;99061.53;5071424;28;19916;-63
2021/09/17 08:18:33;;;;;;;;;;;;;;;19.10;100.00;99060.25;5059740;28;20297;-64
2021/09/17 08:20:59;;;;;;;;;;;;;;;19.42;100.00;99057.28;5065028;28;19921;-63
2021/09/17 08:23:25;;;;;;;;;;;;;;;19.31;100.00;99059.78;5071290;28;19920;-62
2021/09/17 08:25:50;;;;;;;;;;;;;;;18.99;100.00;99065.34;5087722;28;19941;-63
2021/09/17 08:28:18;;;;;;;;;;;;;;;18.53;100.00;99078.72;5086123;28;19912;-64
2021/09/17 08:30:44;;;;;;;;;;;;;;;19.17;100.00;99069.34;5061928;28;19954;-64
2021/09/17 08:33:10;;;;;;;;;;;;;;;19.60;100.00;99071.69;5065668;28;19943;-62
2021/09/17 08:35:35;;;;;;;;;;;;;;;19.58;100.00;99067.53;5061316;28;19912;-63
2021/09/17 08:38:01;;;;;;;;;;;;;;;19.83;100.00;99056.25;5084279;28;19920;-63
2021/09/17 08:40:28;;;;;;;;;;;;;;;20.08;100.00;99057.16;5070593;28;19924;-63
2021/09/17 08:42:55;;;;;;;;;;;;;;;19.14;100.00;99064.34;5067802;28;19966;-63
2021/09/17 08:45:21;;;;;;;;;;;;;;;19.12;100.00;99058.38;5079708;28;20386;-63
2021/09/17 08:47:49;;;;;;;;;;;;;;;18.60;100.00;99074.78;5074681;28;19962;-64
2021/09/17 08:50:14;;;;;;;;;;;;;;;18.98;100.00;99074.13;5080856;28;20339;-64
2021/09/17 08:52:40;;;;;;;;;;;;;;;19.29;100.00;99066.88;5082833;28;19916;-64
2021/09/17 08:55:05;;;;;;;;;;;;;;;19.56;100.00;99069.41;5083447;28;20491;-64
2021/09/17 08:57:31;;;;;;;;;;;;;;;19.57;100.00;99068.47;5083951;28;19924;-62
2021/09/17 08:59:56;;;;;;;;;;;;;;;19.19;100.00;99069.25;5088172;28;19920;-62
2021/09/17 09:02:26;;;;;;;;;;;;;;;18.93;100.00;99071.81;5083581;28;19913;-62
2021/09/17 09:04:54;;;;;;;;;;;;;;;18.35;100.00;99071.13;5089058;28;19924;-62
2021/09/17 09:07:25;;;;;;;;;;;;;;;18.27;100.00;99073.41;5087260;28;19981;-62
2021/09/17 09:09:50;;;;;;;;;;;;;;;18.75;100.00;99071.22;5082615;28;19912;-63
2021/09/17 09:12:17;;;;;;;;;;;;;;;18.59;100.00;99060.94;5077965;28;19920;-63
2021/09/17 09:14:42;;;;;;;;;;;;;;;18.77;100.00;99056.34;5076161;28;19916;-62
2021/09/17 09:17:08;;;;;;;;;;;;;;;18.68;100.00;99056.91;5079868;28;19924;-63
2021/09/17 09:19:34;;;;;;;;;;;;;;;18.90;100.00;99055.53;5080767;28;19928;-63
2021/09/17 09:22:03;;;;;;;;;;;;;;;18.60;100.00;99051.31;5082136;28;20039;-63
2021/09/17 09:24:28;;;;;;;;;;;;;;;19.14;100.00;99053.91;5082377;28;20385;-63
2021/09/17 09:27:09;;;;;;;;;;;;;;;19.56;100.00;99049.34;5083377;28;19920;-63
2021/09/17 09:29:35;;;;;;;;;;;;;;;20.96;100.00;99041.22;5080179;28;20569;-63
2021/09/17 09:32:00;;;;;;;;;;;;;;;20.86;100.00;99041.91;5084870;28;19970;-63
2021/09/17 09:34:45;;;;;;;;;;;;;;;20.86;100.00;99041.09;5082969;28;19916;-63
2021/09/17 09:37:13;;;;;;;;;;;;;;;20.37;100.00;99042.03;5083968;28;19913;-63
2021/09/17 09:39:47;;;;;;;;;;;;;;;19.07;100.00;99050.03;5084856;28;19925;-63
2021/09/17 09:42:13;;;;;;;;;;;;;;;20.06;100.00;99046.81;5082228;28;20019;-64
2021/09/17 09:44:38;;;;;;;;;;;;;;;19.84;100.00;99053.53;5080994;28;20417;-64
2021/09/17 09:47:03;;;;;;;;;;;;;;;20.03;100.00;99045.25;5082495;28;19916;-64
2021/09/17 09:49:29;;;;;;;;;;;;;;;19.54;100.00;99051.22;5083587;28;19999;-63
2021/09/17 09:51:59;;;;;;;;;;;;;;;19.17;100.00;99053.69;5083537;28;19935;-64
2021/09/17 09:54:31;;;;;;;;;;;;;;;19.48;100.00;99046.44;5083368;28;19923;-63
2021/09/17 09:56:56;;;;;;;;;;;;;;;20.36;100.00;99048.19;5082453;28;19916;-64
2021/09/17 09:59:26;;;;;;;;;;;;;;;20.78;100.00;99038.22;5065298;28;20400;-62
2021/09/17 10:01:53;;;;;;;;;;;;;;;19.69;100.00;99043.31;5080964;28;19916;-63
2021/09/17 10:04:19;;;;;;;;;;;;;;;19.57;100.00;99051.03;5081480;28;19997;-63
2021/09/17 10:06:45;;;;;;;;;;;;;;;19.38;100.00;99046.19;5074950;28;19927;-63
2021/09/17 10:09:10;;;;;;;;;;;;;;;20.09;100.00;99046.56;5050455;28;20287;-63
2021/09/17 10:11:36;;;;;;;;;;;;;;;19.87;100.00;99049.06;5063787;28;19912;-63
2021/09/17 10:14:03;;;;;;;;;;;;;;;19.99;100.00;99050.78;5063385;28;19916;-63
2021/09/17 10:16:29;;;;;;;;;;;;;;;19.98;100.00;99044.75;5064315;28;19924;-63
2021/09/17 10:18:54;;;;;;;;;;;;;;;20.20;100.00;99043.22;5063468;28;19913;-64
2021/09/17 10:21:38;;;;;;;;;;;;;;;20.33;100.00;99049.25;5063125;28;19920;-64
2021/09/17 10:24:22;;;;;;;;;;;;;;;19.90;100.00;99041.81;5079801;28;19913;-64
2021/09/17 10:27:08;;;;;;;;;;;;;;;20.99;100.00;99031.38;5061375;28;19921;-64
2021/09/17 10:29:41;;;;;;;;;;;;;;;20.51;100.00;99041.03;5049711;28;20015;-63
2021/09/17 10:32:13;;;;;;;;;;;;;;;20.15;100.00;99038.31;5076171;28;20386;-63
2021/09/17 10:34:41;;;;;;;;;;;;;;;20.55;100.00;99039.84;5061803;28;19928;-63
2021/09/17 10:37:06;;;;;;;;;;;;;;;20.03;100.00;99044.41;5076773;28;20003;-64
2021/09/17 10:39:32;;;;;;;;;;;;;;;19.94;100.00;99045.88;5063372;28;20004;-64
2021/09/17 10:42:16;;;;;;;;;;;;;;;19.82;100.00;99046.75;5061649;28;19913;-64
2021/09/17 10:45:00;;;;;;;;;;;;;;;20.22;100.00;99041.31;5062886;28;20251;-63
2021/09/17 10:47:41;;;;;;;;;;;;;;;19.74;100.00;99047.25;5064239;28;19917;-64
2021/09/17 10:50:10;;;;;;;;;;;;;;;19.05;100.00;99051.06;5061799;28;19916;-63
2021/09/17 10:52:38;;;;;;;;;;;;;;;18.99;100.00;99050.53;5053389;28;19935;-64
2021/09/17 10:55:04;;;;;;;;;;;;;;;18.92;100.00;99053.66;5073465;28;19917;-64
2021/09/17 10:57:29;;;;;;;;;;;;;;;19.36;100.00;99042.00;5060417;28;19912;-64
2021/09/17 10:59:55;;;;;;;;;;;;;;;19.34;100.00;99047.34;5078667;28;20035;-64
2021/09/17 11:02:25;;;;;;;;;;;;;;;19.97;100.00;99039.59;5042463;28;19947;-64
2021/09/17 11:04:50;;;;;;;;;;;;;;;20.21;100.00;99044.91;5044408;28;19912;-63
2021/09/17 11:07:32;;;;;;;;;;;;;;;20.13;100.00;99036.75;5082063;28;20538;-64
2021/09/17 11:09:58;;;;;;;;;;;;;;;20.56;100.00;99028.44;5079291;28;19912;-63
2021/09/17 11:12:26;;;;;;;;;;;;;;;20.76;100.00;99030.47;5081682;28;19913;-64
2021/09/17 11:15:02;;;;;;;;;;;;;;;20.60;100.00;99030.75;5082318;28;20454;-63
2021/09/17 11:17:41;;;;;;;;;;;;;;;20.91;100.00;99035.50;5081655;28;19960;-64
2021/09/17 11:20:07;;;;;;;;;;;;;;;21.21;100.00;99040.22;5082944;28;19916;-64
2021/09/17 11:22:52;;;;;;;;;;;;;;;20.78;100.00;99038.22;5081434;28;20356;-64
2021/09/17 11:25:36;;;;;;;;;;;;;;;20.23;100.00;99038.59;5084311;28;19912;-62
2021/09/17 11:28:02;;;;;;;;;;;;;;;20.14;100.00;99038.41;5083422;28;19916;-61
2021/09/17 11:30:29;;;;;;;;;;;;;;;20.27;100.00;99033.97;5078513;28;20384;-62
2021/09/17 11:32:55;;;;;;;;;;;;;;;22.04;100.00;99026.03;5077396;28;19978;-62
2021/09/17 11:35:20;;;;;;;;;;;;;;;21.36;100.00;99030.38;5080848;28;19944;-62
2021/09/17 11:37:50;;;;;;;;;;;;;;;21.03;100.00;99021.53;5082200;28;19912;-63
2021/09/17 11:40:15;;;;;;;;;;;;;;;20.60;100.00;99025.50;5077784;28;20005;-64
2021/09/17 11:42:41;;;;;;;;;;;;;;;21.07;100.00;99021.19;5082066;28;19951;-63
2021/09/17 11:45:10;;;;;;;;;;;;;;;20.47;100.00;99030.75;5066282;28;20409;-64
2021/09/17 11:47:35;;;;;;;;;;;;;;;20.73;100.00;99025.44;5082222;28;19919;-64
2021/09/17 11:50:03;;;;;;;;;;;;;;;20.89;100.00;99015.53;5071008;28;20258;-64
2021/09/17 11:52:28;;;;;;;;;;;;;;;21.00;100.00;99013.88;5081519;28;19913;-64
2021/09/17 11:55:00;;;;;;;;;;;;;;;20.95;100.00;99014.22;5078934;28;20006;-63
2021/09/17 11:57:33;;;;;;;;;;;;;;;20.86;100.00;99007.06;5077812;28;19942;-63
2021/09/17 11:59:59;;;;;;;;;;;;;;;21.50;100.00;99014.47;5086150;28;19927;-63
2021/09/17 12:02:25;;;;;;;;;;;;;;;20.87;100.00;99001.72;5078834;28;20877;-63
2021/09/17 12:04:58;;;;;;;;;;;;;;;21.84;100.00;99017.09;5081689;28;20027;-63
2021/09/17 12:07:23;;;;;;;;;;;;;;;21.59;100.00;99005.06;5082635;28;19927;-65
2021/09/17 12:09:49;;;;;;;;;;;;;;;21.21;100.00;99006.19;5081199;28;19922;-64
2021/09/17 12:12:16;;;;;;;;;;;;;;;21.12;100.00;98999.88;5079389;28;20297;-63
2021/09/17 12:14:50;;;;;;;;;;;;;;;20.91;100.00;98993.63;5080852;28;19922;-63
2021/09/17 12:17:15;;;;;;;;;;;;;;;20.84;100.00;98995.84;5080226;28;20485;-64
2021/09/17 12:19:56;;;;;;;;;;;;;;;21.02;100.00;98991.84;5081379;28;20011;-63
2021/09/17 12:22:37;;;;;;;;;;;;;;;21.09;100.00;98995.69;5079919;28;20017;-64
2021/09/17 12:25:09;;;;;;;;;;;;;;;21.64;100.00;98990.63;5079767;28;19938;-62
2021/09/17 12:27:34;;;;;;;;;;;;;;;22.17;100.00;98992.63;5079802;28;19920;-63
2021/09/17 12:30:07;;;;;;;;;;;;;;;21.41;100.00;98994.22;5078656;28;19966;-66
2021/09/17 12:32:33;;;;;;;;;;;;;;;21.08;100.00;98996.66;5081806;28;19931;-66